Time;durP1;ratioP1;P1;durP2;ratioP2;P2;SDS_P1;SDS_P2;PMS_P1;PMS_P2;Temp;Humidity;BMP_temperature;BMP_pressure;BME280_temperature;BME280_humidity;BME280_pressure;Samples;Min_cycle;Max_cycle;Signal;HPM_P1;HPM_P2
2022/08/07 00:01:41;;;;;;;;;;;;;;;;;;5015961;28;20060;-27
2022/08/07 00:04:07;;;;;;;;;;;;;;;;;;5015434;28;20272;-26
2022/08/07 00:06:33;;;;;;;;;;;;;;;;;;5015903;28;19917;-26
2022/08/07 00:08:59;;;;;;;;;;;;;;;;;;5015640;28;19909;-27
2022/08/07 00:11:25;;;;;;;;;;;;;;;;;;5015858;28;19913;-27
2022/08/07 00:13:51;;;;;;;;;;;;;;;;;;5015480;28;19917;-27
2022/08/07 00:16:17;;;;;;;;;;;;;;;;;;5015500;28;19910;-27
2022/08/07 00:18:43;;;;;;;;;;;;;;;;;;5015488;28;19910;-27
2022/08/07 00:21:09;;;;;;;;;;;;;;;;;;5015422;28;19917;-27
2022/08/07 00:23:35;;;;;;;;;;;;;;;;;;5015344;28;19913;-27
2022/08/07 00:26:01;;;;;;;;;;;;;;;;;;5015336;28;19918;-26
2022/08/07 00:28:27;;;;;;;;;;;;;;;;;;5015390;28;19944;-26
2022/08/07 00:30:53;;;;;;;;;;;;;;;;;;5015381;28;19920;-26
2022/08/07 00:33:19;;;;;;;;;;;;;;;;;;5015269;28;19929;-26
2022/08/07 00:35:45;;;;;;;;;;;;;;;;;;5015311;28;19913;-27
2022/08/07 00:38:11;;;;;;;;;;;;;;;;;;5015565;28;19918;-27
2022/08/07 00:40:37;;;;;;;;;;;;;;;;;;5015463;28;19920;-27
2022/08/07 00:43:03;;;;;;;;;;;;;;;;;;5015149;28;19913;-27
2022/08/07 00:45:29;;;;;;;;;;;;;;;;;;5014349;28;19909;-27
2022/08/07 00:47:55;;;;;;;;;;;;;;;;;;5015161;28;20008;-27
2022/08/07 00:50:21;;;;;;;;;;;;;;;;;;5015187;28;20000;-26
2022/08/07 00:52:47;;;;;;;;;;;;;;;;;;5015132;28;20298;-27
2022/08/07 00:55:13;;;;;;;;;;;;;;;;;;5015113;28;19975;-27
2022/08/07 00:57:39;;;;;;;;;;;;;;;;;;5015150;28;19909;-27
2022/08/07 01:00:05;;;;;;;;;;;;;;;;;;5014997;28;20279;-27
2022/08/07 01:02:31;;;;;;;;;;;;;;;;;;5015051;28;20016;-27
2022/08/07 01:04:57;;;;;;;;;;;;;;;;;;5015068;28;20364;-27
2022/08/07 01:07:23;;;;;;;;;;;;;;;;;;5015340;28;19909;-27
2022/08/07 01:09:49;;;;;;;;;;;;;;;;;;5015016;28;20005;-27
2022/08/07 01:12:15;;;;;;;;;;;;;;;;;;5014969;28;20248;-27
2022/08/07 01:14:41;;;;;;;;;;;;;;;;;;5014952;28;19925;-27
2022/08/07 01:17:07;;;;;;;;;;;;;;;;;;5014959;28;20337;-27
2022/08/07 01:19:33;;;;;;;;;;;;;;;;;;5015177;28;19917;-27
2022/08/07 01:21:59;;;;;;;;;;;;;;;;;;5015068;28;19925;-27
2022/08/07 01:24:25;;;;;;;;;;;;;;;;;;5015188;28;19925;-27
2022/08/07 01:26:51;;;;;;;;;;;;;;;;;;5014847;28;20276;-27
2022/08/07 01:29:17;;;;;;;;;;;;;;;;;;5015055;28;19920;-27
2022/08/07 01:31:43;;;;;;;;;;;;;;;;;;5014827;28;20008;-27
2022/08/07 01:34:09;;;;;;;;;;;;;;;;;;5015092;28;19940;-27
2022/08/07 01:36:35;;;;;;;;;;;;;;;;;;5018345;28;19971;-27
2022/08/07 01:39:01;;;;;;;;;;;;;;;;;;5018295;28;19921;-27
2022/08/07 01:41:27;;;;;;;;;;;;;;;;;;5018213;28;20277;-27
2022/08/07 01:43:53;;;;;;;;;;;;;;;;;;5018184;28;20008;-27
2022/08/07 01:46:19;;;;;;;;;;;;;;;;;;5018481;28;19913;-27
2022/08/07 01:48:45;;;;;;;;;;;;;;;;;;5018437;28;19968;-27
2022/08/07 01:51:11;;;;;;;;;;;;;;;;;;5018064;28;19917;-27
2022/08/07 01:53:38;;;;;;;;;;;;;;;;;;5018061;28;20003;-27
2022/08/07 01:56:04;;;;;;;;;;;;;;;;;;5018799;28;19914;-27
2022/08/07 01:58:30;;;;;;;;;;;;;;;;;;5018012;28;19913;-27
2022/08/07 02:00:56;;;;;;;;;;;;;;;;;;5017858;28;20257;-27
2022/08/07 02:03:22;;;;;;;;;;;;;;;;;;5017706;28;19936;-27
2022/08/07 02:05:48;;;;;;;;;;;;;;;;;;5017796;28;20415;-27
2022/08/07 02:08:14;;;;;;;;;;;;;;;;;;5018040;28;20030;-27
2022/08/07 02:10:40;;;;;;;;;;;;;;;;;;5017740;28;19948;-27
2022/08/07 02:13:06;;;;;;;;;;;;;;;;;;5017675;28;19913;-27
2022/08/07 02:15:31;;;;;;;;;;;;;;;;;;5017663;28;20259;-27
2022/08/07 02:17:57;;;;;;;;;;;;;;;;;;5017641;28;19909;-27
2022/08/07 02:20:23;;;;;;;;;;;;;;;;;;5017500;28;20016;-27
2022/08/07 02:22:49;;;;;;;;;;;;;;;;;;5017742;28;19909;-27
2022/08/07 02:25:15;;;;;;;;;;;;;;;;;;5017482;28;20015;-27
2022/08/07 02:27:41;;;;;;;;;;;;;;;;;;5017456;28;19933;-27
2022/08/07 02:30:07;;;;;;;;;;;;;;;;;;5017378;28;19980;-27
2022/08/07 02:32:36;;;;;;;;;;;;;;;;;;5017325;28;20329;-27
2022/08/07 02:35:03;;;;;;;;;;;;;;;;;;5017226;28;19919;-27
2022/08/07 02:37:29;;;;;;;;;;;;;;;;;;5017248;28;20396;-27
2022/08/07 02:39:55;;;;;;;;;;;;;;;;;;5017402;28;19937;-27
2022/08/07 02:42:21;;;;;;;;;;;;;;;;;;5017268;28;19972;-27
2022/08/07 02:44:47;;;;;;;;;;;;;;;;;;5017412;28;19913;-27
2022/08/07 02:47:14;;;;;;;;;;;;;;;;;;5016044;28;19914;-27
2022/08/07 02:49:40;;;;;;;;;;;;;;;;;;5017289;28;19910;-26
2022/08/07 02:52:06;;;;;;;;;;;;;;;;;;5017099;28;19968;-27
2022/08/07 02:54:32;;;;;;;;;;;;;;;;;;5016945;28;19910;-27
2022/08/07 02:56:58;;;;;;;;;;;;;;;;;;5016906;28;19913;-27
2022/08/07 02:59:24;;;;;;;;;;;;;;;;;;5016864;28;19914;-27
2022/08/07 03:01:50;;;;;;;;;;;;;;;;;;5015759;28;20004;-27
2022/08/07 03:04:16;;;;;;;;;;;;;;;;;;5016608;28;20357;-27
2022/08/07 03:06:42;;;;;;;;;;;;;;;;;;5016993;28;19988;-27
2022/08/07 03:09:08;;;;;;;;;;;;;;;;;;5016691;28;19928;-27
2022/08/07 03:11:34;;;;;;;;;;;;;;;;;;5016918;28;19910;-27
2022/08/07 03:14:00;;;;;;;;;;;;;;;;;;5016512;28;19913;-27
2022/08/07 03:16:26;;;;;;;;;;;;;;;;;;5016561;28;19913;-27
2022/08/07 03:18:52;;;;;;;;;;;;;;;;;;5016498;28;19913;-27
2022/08/07 03:21:18;;;;;;;;;;;;;;;;;;5016929;28;20004;-27
2022/08/07 03:23:44;;;;;;;;;;;;;;;;;;5016346;28;19957;-27
2022/08/07 03:26:10;;;;;;;;;;;;;;;;;;5016388;28;19921;-27
2022/08/07 03:28:36;;;;;;;;;;;;;;;;;;5016317;28;19914;-27
2022/08/07 03:31:17;;;;;;;;;;;;;;;;;;5016338;28;19913;-27
2022/08/07 03:33:43;;;;;;;;;;;;;;;;;;5016490;28;19941;-27
2022/08/07 03:36:09;;;;;;;;;;;;;;;;;;5016476;28;19996;-27
2022/08/07 03:38:35;;;;;;;;;;;;;;;;;;5016185;28;19948;-27
2022/08/07 03:41:01;;;;;;;;;;;;;;;;;;5016039;28;19921;-27
2022/08/07 03:43:27;;;;;;;;;;;;;;;;;;5015953;28;19917;-27
2022/08/07 03:45:53;;;;;;;;;;;;;;;;;;5015984;28;19921;-27
2022/08/07 03:48:19;;;;;;;;;;;;;;;;;;5015911;28;20340;-27
2022/08/07 03:50:46;;;;;;;;;;;;;;;;;;5015872;28;19914;-27
2022/08/07 03:53:12;;;;;;;;;;;;;;;;;;5015833;28;19913;-27
2022/08/07 03:55:38;;;;;;;;;;;;;;;;;;5014888;28;19921;-27
2022/08/07 03:58:04;;;;;;;;;;;;;;;;;;5015831;28;20304;-27
2022/08/07 04:00:30;;;;;;;;;;;;;;;;;;5015746;28;19968;-27
2022/08/07 04:02:56;;;;;;;;;;;;;;;;;;5015505;28;19921;-27
2022/08/07 04:05:22;;;;;;;;;;;;;;;;;;5015725;28;20004;-27
2022/08/07 04:07:48;;;;;;;;;;;;;;;;;;5015668;28;19952;-27
2022/08/07 04:10:14;;;;;;;;;;;;;;;;;;5015654;28;19909;-27
2022/08/07 04:12:40;;;;;;;;;;;;;;;;;;5015883;28;19913;-27
2022/08/07 04:15:06;;;;;;;;;;;;;;;;;;5015624;28;19914;-27
2022/08/07 04:17:32;;;;;;;;;;;;;;;;;;5014572;28;19924;-27
2022/08/07 04:19:58;;;;;;;;;;;;;;;;;;5016237;28;19988;-27
2022/08/07 04:22:24;;;;;;;;;;;;;;;;;;5015480;28;20030;-27
2022/08/07 04:24:50;;;;;;;;;;;;;;;;;;5015340;28;19961;-27
2022/08/07 04:27:16;;;;;;;;;;;;;;;;;;5015468;28;19968;-27
2022/08/07 04:29:42;;;;;;;;;;;;;;;;;;5015642;28;19913;-27
2022/08/07 04:32:08;;;;;;;;;;;;;;;;;;5015335;28;19961;-27
2022/08/07 04:34:34;;;;;;;;;;;;;;;;;;5015634;28;19971;-27
2022/08/07 04:37:00;;;;;;;;;;;;;;;;;;5015607;28;20376;-27
2022/08/07 04:39:28;;;;;;;;;;;;;;;;;;5015277;28;19910;-27
2022/08/07 04:41:54;;;;;;;;;;;;;;;;;;5015426;28;19921;-27
2022/08/07 04:44:20;;;;;;;;;;;;;;;;;;5015543;28;19977;-27
2022/08/07 04:46:46;;;;;;;;;;;;;;;;;;5015249;28;19913;-27
2022/08/07 04:49:12;;;;;;;;;;;;;;;;;;5015473;28;19922;-27
2022/08/07 04:51:38;;;;;;;;;;;;;;;;;;5015186;28;19969;-27
2022/08/07 04:54:03;;;;;;;;;;;;;;;;;;5015143;28;19914;-27
2022/08/07 04:56:30;;;;;;;;;;;;;;;;;;5015152;28;19912;-27
2022/08/07 04:58:56;;;;;;;;;;;;;;;;;;5015408;28;19917;-27
2022/08/07 05:01:21;;;;;;;;;;;;;;;;;;5015039;28;20271;-27
2022/08/07 05:03:47;;;;;;;;;;;;;;;;;;5014834;28;19928;-27
2022/08/07 05:06:13;;;;;;;;;;;;;;;;;;5015331;28;20367;-27
2022/08/07 05:08:40;;;;;;;;;;;;;;;;;;5015029;28;19914;-27
2022/08/07 05:11:06;;;;;;;;;;;;;;;;;;5018148;28;19985;-27
2022/08/07 05:13:35;;;;;;;;;;;;;;;;;;5019042;28;19917;-27
2022/08/07 05:16:01;;;;;;;;;;;;;;;;;;5019057;28;20016;-27
2022/08/07 05:18:27;;;;;;;;;;;;;;;;;;5019011;28;20256;-27
2022/08/07 05:20:53;;;;;;;;;;;;;;;;;;5018861;28;19914;-27
2022/08/07 05:23:19;;;;;;;;;;;;;;;;;;5018579;28;20305;-27
2022/08/07 05:25:45;;;;;;;;;;;;;;;;;;5018625;28;19996;-27
2022/08/07 05:28:11;;;;;;;;;;;;;;;;;;5018601;28;19959;-27
2022/08/07 05:30:37;;;;;;;;;;;;;;;;;;5018524;28;20404;-27
2022/08/07 05:33:03;;;;;;;;;;;;;;;;;;5018425;28;19967;-27
2022/08/07 05:35:29;;;;;;;;;;;;;;;;;;5018439;28;20008;-27
2022/08/07 05:37:55;;;;;;;;;;;;;;;;;;5018419;28;19971;-27
2022/08/07 05:40:21;;;;;;;;;;;;;;;;;;5018545;28;20008;-27
2022/08/07 05:42:47;;;;;;;;;;;;;;;;;;5018247;28;20004;-27
2022/08/07 05:45:13;;;;;;;;;;;;;;;;;;5018290;28;19921;-26
2022/08/07 05:47:39;;;;;;;;;;;;;;;;;;5018234;28;19996;-28
2022/08/07 05:50:05;;;;;;;;;;;;;;;;;;5018408;28;20292;-27
2022/08/07 05:52:31;;;;;;;;;;;;;;;;;;5018321;28;19913;-27
2022/08/07 05:54:57;;;;;;;;;;;;;;;;;;5018389;28;19913;-27
2022/08/07 05:57:23;;;;;;;;;;;;;;;;;;5018089;28;19921;-27
2022/08/07 05:59:49;;;;;;;;;;;;;;;;;;5017916;28;19924;-27
2022/08/07 06:02:15;;;;;;;;;;;;;;;;;;5017681;28;19914;-27
2022/08/07 06:04:41;;;;;;;;;;;;;;;;;;5017932;28;19952;-27
2022/08/07 06:07:07;;;;;;;;;;;;;;;;;;5018089;28;19913;-27
2022/08/07 06:09:33;;;;;;;;;;;;;;;;;;5018102;28;20344;-27
2022/08/07 06:11:59;;;;;;;;;;;;;;;;;;5017678;28;20075;-27
2022/08/07 06:14:25;;;;;;;;;;;;;;;;;;5017707;28;19949;-27
2022/08/07 06:16:51;;;;;;;;;;;;;;;;;;5017959;28;20015;-27
2022/08/07 06:19:17;;;;;;;;;;;;;;;;;;5017595;28;20004;-27
2022/08/07 06:21:43;;;;;;;;;;;;;;;;;;5017639;28;19918;-27
2022/08/07 06:24:09;;;;;;;;;;;;;;;;;;5017525;28;19909;-27
2022/08/07 06:26:35;;;;;;;;;;;;;;;;;;5017488;28;19910;-27
2022/08/07 06:29:02;;;;;;;;;;;;;;;;;;5017761;28;19968;-27
2022/08/07 06:31:29;;;;;;;;;;;;;;;;;;5017652;28;20314;-26
2022/08/07 06:33:54;;;;;;;;;;;;;;;;;;5017296;28;20241;-27
2022/08/07 06:36:21;;;;;;;;;;;;;;;;;;5017232;28;19972;-27
2022/08/07 06:38:46;;;;;;;;;;;;;;;;;;5017277;28;19913;-27
2022/08/07 06:41:12;;;;;;;;;;;;;;;;;;5017133;28;19917;-27
2022/08/07 06:43:39;;;;;;;;;;;;;;;;;;5017407;28;19909;-27
2022/08/07 06:46:05;;;;;;;;;;;;;;;;;;5017419;28;20238;-27
2022/08/07 06:48:31;;;;;;;;;;;;;;;;;;5017096;28;19921;-27
2022/08/07 06:50:57;;;;;;;;;;;;;;;;;;5017316;28;19924;-27
2022/08/07 06:53:23;;;;;;;;;;;;;;;;;;5017234;28;20268;-27
2022/08/07 06:55:49;;;;;;;;;;;;;;;;;;5017241;28;19937;-27
2022/08/07 06:58:15;;;;;;;;;;;;;;;;;;5016726;28;19925;-28
2022/08/07 07:00:41;;;;;;;;;;;;;;;;;;5017099;28;20252;-27
2022/08/07 07:03:07;;;;;;;;;;;;;;;;;;5016848;28;20241;-27
2022/08/07 07:05:33;;;;;;;;;;;;;;;;;;5016738;28;19920;-27
2022/08/07 07:07:59;;;;;;;;;;;;;;;;;;5016719;28;19948;-27
2022/08/07 07:10:25;;;;;;;;;;;;;;;;;;5016740;28;19910;-27
2022/08/07 07:12:51;;;;;;;;;;;;;;;;;;5016582;28;20265;-27
2022/08/07 07:15:17;;;;;;;;;;;;;;;;;;5016646;28;19914;-27
2022/08/07 07:17:43;;;;;;;;;;;;;;;;;;5016580;28;19913;-27
2022/08/07 07:20:09;;;;;;;;;;;;;;;;;;5016725;28;19913;-27
2022/08/07 07:22:35;;;;;;;;;;;;;;;;;;5016424;28;19920;-27
2022/08/07 07:25:01;;;;;;;;;;;;;;;;;;5016456;28;19917;-27
2022/08/07 07:27:27;;;;;;;;;;;;;;;;;;5016621;28;20055;-27
2022/08/07 07:29:53;;;;;;;;;;;;;;;;;;5016606;28;19960;-27
2022/08/07 07:32:19;;;;;;;;;;;;;;;;;;5015729;28;19914;-27
2022/08/07 07:34:45;;;;;;;;;;;;;;;;;;5016241;28;19914;-27
2022/08/07 07:37:11;;;;;;;;;;;;;;;;;;5016161;28;19917;-27
2022/08/07 07:39:37;;;;;;;;;;;;;;;;;;5016107;28;19916;-27
2022/08/07 07:42:03;;;;;;;;;;;;;;;;;;5015977;28;19921;-27
2022/08/07 07:44:29;;;;;;;;;;;;;;;;;;5016358;28;19964;-27
2022/08/07 07:46:55;;;;;;;;;;;;;;;;;;5016303;28;19920;-27
2022/08/07 07:49:21;;;;;;;;;;;;;;;;;;5015949;28;19917;-27
2022/08/07 07:51:47;;;;;;;;;;;;;;;;;;5015874;28;19935;-27
2022/08/07 07:54:13;;;;;;;;;;;;;;;;;;5016208;28;19913;-27
2022/08/07 07:56:39;;;;;;;;;;;;;;;;;;5016141;28;19909;-27
2022/08/07 07:59:05;;;;;;;;;;;;;;;;;;5015871;28;20398;-27
2022/08/07 08:01:31;;;;;;;;;;;;;;;;;;5015705;28;19921;-27
2022/08/07 08:03:57;;;;;;;;;;;;;;;;;;5015522;28;19957;-27
2022/08/07 08:06:23;;;;;;;;;;;;;;;;;;5015671;28;20307;-27
2022/08/07 08:08:49;;;;;;;;;;;;;;;;;;5015668;28;19924;-27
2022/08/07 08:11:15;;;;;;;;;;;;;;;;;;5015671;28;20272;-27
2022/08/07 08:13:41;;;;;;;;;;;;;;;;;;5015521;28;19917;-27
2022/08/07 08:16:07;;;;;;;;;;;;;;;;;;5015577;28;20308;-27
2022/08/07 08:18:33;;;;;;;;;;;;;;;;;;5015806;28;19913;-27
2022/08/07 08:21:00;;;;;;;;;;;;;;;;;;5015419;28;20252;-27
2022/08/07 08:28:55;;;;;;;;;;;;;;;;;;5015773;28;19948;-27
2022/08/07 08:31:21;;;;;;;;;;;;;;;;;;5015423;28;19917;-27
2022/08/07 08:33:47;;;;;;;;;;;;;;;;;;5015295;28;19914;-27
2022/08/07 08:36:15;;;;;;;;;;;;;;;;;;5015598;28;19910;-27
2022/08/07 08:38:41;;;;;;;;;;;;;;;;;;5015578;28;20074;-27
2022/08/07 08:41:07;;;;;;;;;;;;;;;;;;5015245;28;20403;-27
2022/08/07 08:43:33;;;;;;;;;;;;;;;;;;5015514;28;20012;-27
2022/08/07 08:45:59;;;;;;;;;;;;;;;;;;5018444;28;19916;-27
2022/08/07 08:48:25;;;;;;;;;;;;;;;;;;5019387;28;19913;-27
2022/08/07 08:50:51;;;;;;;;;;;;;;;;;;5019349;28;19927;-27
2022/08/07 08:53:18;;;;;;;;;;;;;;;;;;5019171;28;19971;-27
2022/08/07 08:55:44;;;;;;;;;;;;;;;;;;5019470;28;19992;-27
2022/08/07 08:58:10;;;;;;;;;;;;;;;;;;5019143;28;19972;-27
2022/08/07 09:00:36;;;;;;;;;;;;;;;;;;5019042;28;20352;-27
2022/08/07 09:03:02;;;;;;;;;;;;;;;;;;5018943;28;19929;-27
2022/08/07 09:05:28;;;;;;;;;;;;;;;;;;5019262;28;20260;-27
2022/08/07 09:07:54;;;;;;;;;;;;;;;;;;5018958;28;19972;-27
2022/08/07 09:10:20;;;;;;;;;;;;;;;;;;5018868;28;19978;-27
2022/08/07 09:12:46;;;;;;;;;;;;;;;;;;5019092;28;19914;-27
2022/08/07 09:15:12;;;;;;;;;;;;;;;;;;5018863;28;19913;-27
2022/08/07 09:17:38;;;;;;;;;;;;;;;;;;5019097;28;20252;-27
2022/08/07 09:20:04;;;;;;;;;;;;;;;;;;5018673;28;20012;-27
2022/08/07 09:22:30;;;;;;;;;;;;;;;;;;5018695;28;19916;-27
2022/08/07 09:24:56;;;;;;;;;;;;;;;;;;5018660;28;19975;-27
2022/08/07 09:27:23;;;;;;;;;;;;;;;;;;5017673;28;20348;-27
2022/08/07 09:29:49;;;;;;;;;;;;;;;;;;5018826;28;20243;-27
2022/08/07 09:32:15;;;;;;;;;;;;;;;;;;5018746;28;19909;-27
2022/08/07 09:34:40;;;;;;;;;;;;;;;;;;5018476;28;20375;-27
2022/08/07 09:37:06;;;;;;;;;;;;;;;;;;5018469;28;19910;-27
2022/08/07 09:39:32;;;;;;;;;;;;;;;;;;5018417;28;19948;-27
2022/08/07 09:41:58;;;;;;;;;;;;;;;;;;5017286;28;19917;-27
2022/08/07 09:44:24;;;;;;;;;;;;;;;;;;5018312;28;20303;-27
2022/08/07 09:46:50;;;;;;;;;;;;;;;;;;5018243;28;20000;-27
2022/08/07 09:49:16;;;;;;;;;;;;;;;;;;5018185;28;19913;-27
2022/08/07 09:51:42;;;;;;;;;;;;;;;;;;5018419;28;20344;-27
2022/08/07 09:54:08;;;;;;;;;;;;;;;;;;5018028;28;19956;-27
2022/08/07 09:56:34;;;;;;;;;;;;;;;;;;5017591;28;19906;-27
2022/08/07 09:59:01;;;;;;;;;;;;;;;;;;5018301;28;19913;-27
2022/08/07 10:01:27;;;;;;;;;;;;;;;;;;5018218;28;19928;-27
2022/08/07 10:03:54;;;;;;;;;;;;;;;;;;5017693;28;19921;-27
2022/08/07 10:06:20;;;;;;;;;;;;;;;;;;5017767;28;19987;-27
2022/08/07 10:08:46;;;;;;;;;;;;;;;;;;5017899;28;19909;-27
2022/08/07 10:11:12;;;;;;;;;;;;;;;;;;5017710;28;19914;-27
2022/08/07 10:13:38;;;;;;;;;;;;;;;;;;5017706;28;19909;-27
2022/08/07 10:16:04;;;;;;;;;;;;;;;;;;5017701;28;19913;-27
2022/08/07 10:18:30;;;;;;;;;;;;;;;;;;5017643;28;19967;-27
2022/08/07 10:20:56;;;;;;;;;;;;;;;;;;5016580;28;19913;-27
2022/08/07 10:23:22;;;;;;;;;;;;;;;;;;5017771;28;19914;-27
2022/08/07 10:25:48;;;;;;;;;;;;;;;;;;5018056;28;20001;-27
2022/08/07 10:28:14;;;;;;;;;;;;;;;;;;5017747;28;19941;-27
2022/08/07 10:30:40;;;;;;;;;;;;;;;;;;5017468;28;20400;-27
2022/08/07 10:33:07;;;;;;;;;;;;;;;;;;5017384;28;19944;-27
2022/08/07 10:35:33;;;;;;;;;;;;;;;;;;5017662;28;20299;-27
2022/08/07 10:37:59;;;;;;;;;;;;;;;;;;5017615;28;19949;-27
2022/08/07 10:40:25;;;;;;;;;;;;;;;;;;5017241;28;19918;-27
2022/08/07 10:42:51;;;;;;;;;;;;;;;;;;5017130;28;20009;-27
2022/08/07 10:45:17;;;;;;;;;;;;;;;;;;5016163;28;19951;-27
2022/08/07 10:47:43;;;;;;;;;;;;;;;;;;5017422;28;19910;-27
2022/08/07 10:50:09;;;;;;;;;;;;;;;;;;5017354;28;19920;-27
2022/08/07 10:52:35;;;;;;;;;;;;;;;;;;5017166;28;20253;-28
2022/08/07 10:55:01;;;;;;;;;;;;;;;;;;5017011;28;19928;-26
2022/08/07 10:57:27;;;;;;;;;;;;;;;;;;5017213;28;19918;-26
2022/08/07 10:59:53;;;;;;;;;;;;;;;;;;5017204;28;19910;-27
2022/08/07 11:02:19;;;;;;;;;;;;;;;;;;5016539;28;19975;-29
2022/08/07 11:04:45;;;;;;;;;;;;;;;;;;5017137;28;19918;-27
2022/08/07 11:07:11;;;;;;;;;;;;;;;;;;5015909;28;19914;-27
2022/08/07 11:09:37;;;;;;;;;;;;;;;;;;5016721;28;19920;-26
2022/08/07 11:12:03;;;;;;;;;;;;;;;;;;5017693;28;19923;-29
2022/08/07 11:14:29;;;;;;;;;;;;;;;;;;5016640;28;19935;-26
2022/08/07 11:16:55;;;;;;;;;;;;;;;;;;5016605;28;19992;-29
2022/08/07 11:19:21;;;;;;;;;;;;;;;;;;5016879;28;19964;-28
2022/08/07 11:21:47;;;;;;;;;;;;;;;;;;5016373;28;20403;-29
2022/08/07 11:24:13;;;;;;;;;;;;;;;;;;5016783;28;20039;-29
2022/08/07 11:26:39;;;;;;;;;;;;;;;;;;5016439;28;19959;-27
2022/08/07 11:29:05;;;;;;;;;;;;;;;;;;5016324;28;19913;-26
2022/08/07 11:31:31;;;;;;;;;;;;;;;;;;5016360;28;20380;-27
2022/08/07 11:33:57;;;;;;;;;;;;;;;;;;5016183;28;19914;-27
2022/08/07 11:36:23;;;;;;;;;;;;;;;;;;5016517;28;19905;-27
2022/08/07 11:38:49;;;;;;;;;;;;;;;;;;5016163;28;20005;-27
2022/08/07 11:41:15;;;;;;;;;;;;;;;;;;5015994;28;19952;-27
2022/08/07 11:43:42;;;;;;;;;;;;;;;;;;5016315;28;20268;-27
2022/08/07 11:46:08;;;;;;;;;;;;;;;;;;5016309;28;19913;-27
2022/08/07 11:48:34;;;;;;;;;;;;;;;;;;5016008;28;19913;-27
2022/08/07 11:51:00;;;;;;;;;;;;;;;;;;5016262;28;19909;-29
2022/08/07 11:53:26;;;;;;;;;;;;;;;;;;5015931;28;20001;-26
2022/08/07 11:55:52;;;;;;;;;;;;;;;;;;5015867;28;19909;-27
2022/08/07 11:58:19;;;;;;;;;;;;;;;;;;5015836;28;20238;-27
2022/08/07 12:00:45;;;;;;;;;;;;;;;;;;5016024;28;19921;-26
2022/08/07 12:03:11;;;;;;;;;;;;;;;;;;5015520;28;19936;-27
2022/08/07 12:05:37;;;;;;;;;;;;;;;;;;5015773;28;20006;-27
2022/08/07 12:08:04;;;;;;;;;;;;;;;;;;5015703;28;19917;-27
2022/08/07 12:10:30;;;;;;;;;;;;;;;;;;5015663;28;19971;-27
2022/08/07 12:12:56;;;;;;;;;;;;;;;;;;5015900;28;20371;-27
2022/08/07 12:15:22;;;;;;;;;;;;;;;;;;5015595;28;20403;-27
2022/08/07 12:17:48;;;;;;;;;;;;;;;;;;5015644;28;19914;-27
2022/08/07 12:20:14;;;;;;;;;;;;;;;;;;5015582;28;19972;-27
2022/08/07 12:22:40;;;;;;;;;;;;;;;;;;5015809;28;19918;-27
2022/08/07 12:27:50;;;;;;;;;;;;;;;;;;5015492;28;19971;-26
2022/08/07 12:30:16;;;;;;;;;;;;;;;;;;5015703;28;20307;-27
2022/08/07 12:32:42;;;;;;;;;;;;;;;;;;5015315;28;19921;-27
2022/08/07 12:35:08;;;;;;;;;;;;;;;;;;5015395;28;19975;-27
2022/08/07 12:37:34;;;;;;;;;;;;;;;;;;5015649;28;19921;-27
2022/08/07 12:40:00;;;;;;;;;;;;;;;;;;5015372;28;19910;-27
2022/08/07 12:42:26;;;;;;;;;;;;;;;;;;5015340;28;20344;-27
2022/08/07 12:44:52;;;;;;;;;;;;;;;;;;5015591;28;20008;-27
2022/08/07 12:47:18;;;;;;;;;;;;;;;;;;5015193;28;19913;-27
2022/08/07 12:49:44;;;;;;;;;;;;;;;;;;5015258;28;19920;-27
2022/08/07 12:52:11;;;;;;;;;;;;;;;;;;5014181;28;19963;-27
2022/08/07 12:54:37;;;;;;;;;;;;;;;;;;5015205;28;19920;-27
2022/08/07 12:57:03;;;;;;;;;;;;;;;;;;5015173;28;19913;-27
2022/08/07 12:59:29;;;;;;;;;;;;;;;;;;5015160;28;20004;-27
2022/08/07 13:01:55;;;;;;;;;;;;;;;;;;5014965;28;19957;-27
2022/08/07 13:04:21;;;;;;;;;;;;;;;;;;5014917;28;20017;-27
2022/08/07 13:06:47;;;;;;;;;;;;;;;;;;5015029;28;20004;-27
2022/08/07 13:09:13;;;;;;;;;;;;;;;;;;5015372;28;19973;-27
2022/08/07 13:11:41;;;;;;;;;;;;;;;;;;5014568;28;20124;-27
2022/08/07 13:14:07;;;;;;;;;;;;;;;;;;5014924;28;19913;-27
2022/08/07 13:16:33;;;;;;;;;;;;;;;;;;5014059;28;20424;-27
2022/08/07 13:18:59;;;;;;;;;;;;;;;;;;5015214;28;20281;-28
2022/08/07 13:21:26;;;;;;;;;;;;;;;;;;5015147;28;20244;-27
2022/08/07 13:23:52;;;;;;;;;;;;;;;;;;5014864;28;19941;-27
2022/08/07 13:26:18;;;;;;;;;;;;;;;;;;5015160;28;19909;-27
2022/08/07 13:28:45;;;;;;;;;;;;;;;;;;5015215;28;19913;-27
2022/08/07 13:31:11;;;;;;;;;;;;;;;;;;5016799;28;20262;-27
2022/08/07 13:33:37;;;;;;;;;;;;;;;;;;5018742;28;19967;-27
2022/08/07 13:36:03;;;;;;;;;;;;;;;;;;5018494;28;19913;-27
2022/08/07 13:38:29;;;;;;;;;;;;;;;;;;5018462;28;20359;-28
2022/08/07 13:40:55;;;;;;;;;;;;;;;;;;5018283;28;20248;-27
2022/08/07 13:43:21;;;;;;;;;;;;;;;;;;5018277;28;19996;-27
2022/08/07 13:45:47;;;;;;;;;;;;;;;;;;5018301;28;19913;-27
2022/08/07 13:48:13;;;;;;;;;;;;;;;;;;5018257;28;19910;-27
2022/08/07 13:50:39;;;;;;;;;;;;;;;;;;5018536;28;19914;-27
2022/08/07 13:53:05;;;;;;;;;;;;;;;;;;5018112;28;19963;-27
2022/08/07 13:55:31;;;;;;;;;;;;;;;;;;5018121;28;19927;-27
2022/08/07 13:57:59;;;;;;;;;;;;;;;;;;5018070;28;19941;-27
2022/08/07 14:00:43;;;;;;;;;;;;;;;;;;5017888;28;19913;-27
2022/08/07 14:03:09;;;;;;;;;;;;;;;;;;5017722;28;19922;-27
2022/08/07 14:05:36;;;;;;;;;;;;;;;;;;5017891;28;20356;-28
2022/08/07 14:08:01;;;;;;;;;;;;;;;;;;5018145;28;20268;-27
2022/08/07 14:10:29;;;;;;;;;;;;;;;;;;5018147;28;19914;-27
2022/08/07 14:12:57;;;;;;;;;;;;;;;;;;5018026;28;19922;-27
2022/08/07 14:15:23;;;;;;;;;;;;;;;;;;5017767;28;19909;-27
2022/08/07 14:17:49;;;;;;;;;;;;;;;;;;5017719;28;19920;-27
2022/08/07 14:20:17;;;;;;;;;;;;;;;;;;5017658;28;19909;-27
2022/08/07 14:22:43;;;;;;;;;;;;;;;;;;5017575;28;19914;-27
2022/08/07 14:25:09;;;;;;;;;;;;;;;;;;5017842;28;19923;-27
2022/08/07 14:27:35;;;;;;;;;;;;;;;;;;5017818;28;20337;-27
2022/08/07 14:30:02;;;;;;;;;;;;;;;;;;5017771;28;19921;-27
2022/08/07 14:32:28;;;;;;;;;;;;;;;;;;5017432;28;19913;-27
2022/08/07 14:34:54;;;;;;;;;;;;;;;;;;5017391;28;19974;-27
2022/08/07 14:37:20;;;;;;;;;;;;;;;;;;5017344;28;20344;-27
2022/08/07 14:39:46;;;;;;;;;;;;;;;;;;5017326;28;19913;-27
2022/08/07 14:42:12;;;;;;;;;;;;;;;;;;5017135;28;19936;-27
2022/08/07 14:44:38;;;;;;;;;;;;;;;;;;5017210;28;19924;-27
2022/08/07 14:47:04;;;;;;;;;;;;;;;;;;5016230;28;19909;-27
2022/08/07 14:49:30;;;;;;;;;;;;;;;;;;5017105;28;19992;-27
2022/08/07 14:51:56;;;;;;;;;;;;;;;;;;5017278;28;20011;-27
2022/08/07 14:54:22;;;;;;;;;;;;;;;;;;5017039;28;19914;-27
2022/08/07 14:56:49;;;;;;;;;;;;;;;;;;5017009;28;19910;-27
2022/08/07 14:59:15;;;;;;;;;;;;;;;;;;5016918;28;19913;-27
2022/08/07 15:01:42;;;;;;;;;;;;;;;;;;5017108;28;19918;-27
2022/08/07 15:04:07;;;;;;;;;;;;;;;;;;5016621;28;20273;-27
2022/08/07 15:06:33;;;;;;;;;;;;;;;;;;5017383;28;19909;-27
2022/08/07 15:08:59;;;;;;;;;;;;;;;;;;5016703;28;19914;-27
2022/08/07 15:11:25;;;;;;;;;;;;;;;;;;5016978;28;19917;-27
2022/08/07 15:13:51;;;;;;;;;;;;;;;;;;5016616;28;19917;-27
2022/08/07 15:16:17;;;;;;;;;;;;;;;;;;5016624;28;19979;-27
2022/08/07 15:18:44;;;;;;;;;;;;;;;;;;5016859;28;19915;-27
2022/08/07 15:21:09;;;;;;;;;;;;;;;;;;5016721;28;19929;-27
2022/08/07 15:23:36;;;;;;;;;;;;;;;;;;5016738;28;20341;-27
2022/08/07 15:26:02;;;;;;;;;;;;;;;;;;5016701;28;19941;-27
2022/08/07 15:28:28;;;;;;;;;;;;;;;;;;5016424;28;19920;-27
2022/08/07 15:30:55;;;;;;;;;;;;;;;;;;5016345;28;19913;-27
2022/08/07 15:33:21;;;;;;;;;;;;;;;;;;5016267;28;19952;-27
2022/08/07 15:35:47;;;;;;;;;;;;;;;;;;5016275;28;19913;-27
2022/08/07 15:38:12;;;;;;;;;;;;;;;;;;5016265;28;19936;-27
2022/08/07 15:40:38;;;;;;;;;;;;;;;;;;5016108;28;19918;-27
2022/08/07 15:43:05;;;;;;;;;;;;;;;;;;5016062;28;20345;-27
2022/08/07 15:45:31;;;;;;;;;;;;;;;;;;5016051;28;19924;-27
2022/08/07 15:47:59;;;;;;;;;;;;;;;;;;5016381;28;19910;-27
2022/08/07 15:50:25;;;;;;;;;;;;;;;;;;5016262;28;19914;-27
2022/08/07 15:52:51;;;;;;;;;;;;;;;;;;5015917;28;20321;-27
2022/08/07 15:55:17;;;;;;;;;;;;;;;;;;5015761;28;19928;-27
2022/08/07 15:57:43;;;;;;;;;;;;;;;;;;5015915;28;20260;-27
2022/08/07 16:00:09;;;;;;;;;;;;;;;;;;5015964;28;20008;-27
2022/08/07 16:02:35;;;;;;;;;;;;;;;;;;5015688;28;20004;-27
2022/08/07 16:05:03;;;;;;;;;;;;;;;;;;5016395;28;20282;-27
2022/08/07 16:07:29;;;;;;;;;;;;;;;;;;5015714;28;19975;-27
2022/08/07 16:09:55;;;;;;;;;;;;;;;;;;5015767;28;19906;-27
2022/08/07 16:12:21;;;;;;;;;;;;;;;;;;5016262;28;19913;-27
2022/08/07 16:14:46;;;;;;;;;;;;;;;;;;5015636;28;19964;-27
2022/08/07 16:17:13;;;;;;;;;;;;;;;;;;5015909;28;19916;-27
2022/08/07 16:19:39;;;;;;;;;;;;;;;;;;5015597;28;19955;-27
2022/08/07 16:22:05;;;;;;;;;;;;;;;;;;5015378;28;19964;-27
2022/08/07 16:24:31;;;;;;;;;;;;;;;;;;5015819;28;20357;-27
2022/08/07 16:26:57;;;;;;;;;;;;;;;;;;5015794;28;19913;-27
2022/08/07 16:29:23;;;;;;;;;;;;;;;;;;5015760;28;19913;-27
2022/08/07 16:31:49;;;;;;;;;;;;;;;;;;5016125;28;19914;-27
2022/08/07 16:34:15;;;;;;;;;;;;;;;;;;5015677;28;19914;-27
2022/08/07 16:36:43;;;;;;;;;;;;;;;;;;5015438;28;19943;-27
2022/08/07 16:39:09;;;;;;;;;;;;;;;;;;5014386;28;19913;-27
2022/08/07 16:41:35;;;;;;;;;;;;;;;;;;5015244;28;19913;-27
2022/08/07 16:44:01;;;;;;;;;;;;;;;;;;5015291;28;20324;-27
2022/08/07 16:46:27;;;;;;;;;;;;;;;;;;5015231;28;20407;-27